Finch, Canada
Current Conditions -  °F | °C
As of 12:53 PM on Tuesday 21 Oct 2014 (Local Time) from KMSS Reporting Station
Overcast Overcast  
Wind Chill: 39°   Ceiling: 1100
Heat Index: 45°   Visibility: 9mi
Dew Point: 42°   Wind: 13mph
Humidity: 90%   Direction: 50°NE
Pressure: 30"   Gusts: NA
Location:  45.13°N, 75.08°W
Report Text: KMSS 211653Z AUTO 05011KT 9SM OVC011 07/06 A3000 RMK AO2 SLP161 T00720056
Loading
Personal Weather Stations






























Interactive Weather Map
Tropical Storm Tracking
New forecast layout! Learn more

10-Day Weather Forecast

Advertisements
Track Severe Weather on mobile